sensor_id;sensor_type;location;lat;lon;timestamp;pressure;altitude;pressure_sealevel;temperature;humidity
70909;BME280;58554;52.006;5.926;2023-10-31T00:01:36;98644.31;;;16.67;60.13
70909;BME280;58554;52.006;5.926;2023-10-31T00:04:02;98653.56;;;16.56;60.18
70909;BME280;58554;52.006;5.926;2023-10-31T00:06:29;98653.78;;;16.47;60.24
70909;BME280;58554;52.006;5.926;2023-10-31T00:08:56;98660.81;;;16.39;60.26
70909;BME280;58554;52.006;5.926;2023-10-31T00:11:22;98671.44;;;16.25;59.91
70909;BME280;58554;52.006;5.926;2023-10-31T00:13:49;98672.00;;;16.12;60.25
70909;BME280;58554;52.006;5.926;2023-10-31T00:16:15;98679.34;;;16.10;60.36
70909;BME280;58554;52.006;5.926;2023-10-31T00:18:44;98683.19;;;16.07;60.54
70909;BME280;58554;52.006;5.926;2023-10-31T00:21:11;98696.69;;;16.06;60.43
70909;BME280;58554;52.006;5.926;2023-10-31T00:23:43;98701.06;;;15.98;60.30
70909;BME280;58554;52.006;5.926;2023-10-31T00:26:09;98701.28;;;15.89;60.46
70909;BME280;58554;52.006;5.926;2023-10-31T00:28:36;98688.13;;;15.79;60.52
70909;BME280;58554;52.006;5.926;2023-10-31T00:31:03;98685.31;;;15.72;60.62
70909;BME280;58554;52.006;5.926;2023-10-31T00:33:29;98688.00;;;15.64;60.67
70909;BME280;58554;52.006;5.926;2023-10-31T00:35:59;98705.84;;;15.55;60.75
70909;BME280;58554;52.006;5.926;2023-10-31T00:38:25;98708.69;;;15.46;61.04
70909;BME280;58554;52.006;5.926;2023-10-31T00:40:51;98705.41;;;15.35;60.92
70909;BME280;58554;52.006;5.926;2023-10-31T00:43:18;98720.22;;;15.30;61.33
70909;BME280;58554;52.006;5.926;2023-10-31T00:45:44;98720.75;;;15.25;61.30
70909;BME280;58554;52.006;5.926;2023-10-31T00:48:11;98717.56;;;15.22;61.56
70909;BME280;58554;52.006;5.926;2023-10-31T00:50:37;98719.72;;;15.18;61.49
70909;BME280;58554;52.006;5.926;2023-10-31T00:53:07;98725.41;;;15.15;61.50
70909;BME280;58554;52.006;5.926;2023-10-31T00:55:33;98730.22;;;15.11;61.53
70909;BME280;58554;52.006;5.926;2023-10-31T00:58:00;98739.03;;;15.12;61.44
70909;BME280;58554;52.006;5.926;2023-10-31T01:00:26;98746.03;;;15.13;61.65
70909;BME280;58554;52.006;5.926;2023-10-31T01:02:53;98743.53;;;15.11;61.34
70909;BME280;58554;52.006;5.926;2023-10-31T01:05:19;98744.03;;;15.07;61.64
70909;BME280;58554;52.006;5.926;2023-10-31T01:07:46;98745.53;;;15.09;61.53
70909;BME280;58554;52.006;5.926;2023-10-31T01:10:16;98752.69;;;15.09;61.53
70909;BME280;58554;52.006;5.926;2023-10-31T01:12:42;98754.69;;;15.07;61.31
70909;BME280;58554;52.006;5.926;2023-10-31T01:15:09;98761.19;;;15.04;61.50
70909;BME280;58554;52.006;5.926;2023-10-31T01:17:35;98775.47;;;15.03;61.45
70909;BME280;58554;52.006;5.926;2023-10-31T01:20:03;98782.28;;;14.97;61.50
70909;BME280;58554;52.006;5.926;2023-10-31T01:22:31;98781.81;;;14.94;61.61
70909;BME280;58554;52.006;5.926;2023-10-31T01:24:57;98784.78;;;14.91;61.71
70909;BME280;58554;52.006;5.926;2023-10-31T01:27:26;98791.28;;;14.96;61.77
70909;BME280;58554;52.006;5.926;2023-10-31T01:29:53;98787.44;;;14.99;61.69
70909;BME280;58554;52.006;5.926;2023-10-31T01:32:19;98789.28;;;15.07;61.90
70909;BME280;58554;52.006;5.926;2023-10-31T01:34:46;98796.63;;;15.13;61.54
70909;BME280;58554;52.006;5.926;2023-10-31T01:37:12;98801.94;;;15.21;61.69
70909;BME280;58554;52.006;5.926;2023-10-31T01:39:39;98809.75;;;15.31;61.50
70909;BME280;58554;52.006;5.926;2023-10-31T01:42:06;98807.28;;;15.37;61.51
70909;BME280;58554;52.006;5.926;2023-10-31T01:44:35;98807.59;;;15.43;61.41
70909;BME280;58554;52.006;5.926;2023-10-31T01:47:02;98820.56;;;15.46;61.28
70909;BME280;58554;52.006;5.926;2023-10-31T01:49:30;98816.91;;;15.47;61.27
70909;BME280;58554;52.006;5.926;2023-10-31T01:51:57;98818.09;;;15.52;61.34
70909;BME280;58554;52.006;5.926;2023-10-31T01:54:23;98824.22;;;15.61;61.22
70909;BME280;58554;52.006;5.926;2023-10-31T01:56:50;98813.88;;;15.66;61.12
70909;BME280;58554;52.006;5.926;2023-10-31T01:59:16;98814.06;;;15.73;61.04
70909;BME280;58554;52.006;5.926;2023-10-31T02:01:47;98823.72;;;15.82;61.05
70909;BME280;58554;52.006;5.926;2023-10-31T02:04:15;98828.72;;;15.85;60.81
70909;BME280;58554;52.006;5.926;2023-10-31T02:06:42;98837.22;;;15.89;60.78
70909;BME280;58554;52.006;5.926;2023-10-31T02:09:08;98830.22;;;15.88;60.59
70909;BME280;58554;52.006;5.926;2023-10-31T02:11:35;98830.56;;;15.85;60.65
70909;BME280;58554;52.006;5.926;2023-10-31T02:14:01;98830.22;;;15.88;60.90
70909;BME280;58554;52.006;5.926;2023-10-31T02:16:28;98834.69;;;15.95;60.85
70909;BME280;58554;52.006;5.926;2023-10-31T02:18:57;98830.22;;;15.96;60.65
70909;BME280;58554;52.006;5.926;2023-10-31T02:21:25;98837.84;;;15.99;60.49
70909;BME280;58554;52.006;5.926;2023-10-31T02:24:02;98835.03;;;16.01;60.55
70909;BME280;58554;52.006;5.926;2023-10-31T02:26:29;98832.84;;;16.04;60.37
70909;BME280;58554;52.006;5.926;2023-10-31T02:28:57;98830.66;;;16.08;60.48
70909;BME280;58554;52.006;5.926;2023-10-31T02:31:23;98833.66;;;16.13;60.32
70909;BME280;58554;52.006;5.926;2023-10-31T02:33:50;98837.47;;;16.18;60.37
70909;BME280;58554;52.006;5.926;2023-10-31T02:36:18;98836.13;;;16.23;60.31
70909;BME280;58554;52.006;5.926;2023-10-31T02:38:45;98830.78;;;16.23;60.24
70909;BME280;58554;52.006;5.926;2023-10-31T02:41:14;98833.81;;;16.19;60.25
70909;BME280;58554;52.006;5.926;2023-10-31T02:43:41;98837.16;;;16.13;60.32
70909;BME280;58554;52.006;5.926;2023-10-31T02:46:08;98837.31;;;16.12;60.33
70909;BME280;58554;52.006;5.926;2023-10-31T02:48:34;98835.47;;;16.12;60.46
70909;BME280;58554;52.006;5.926;2023-10-31T02:51:01;98842.13;;;16.16;60.55
70909;BME280;58554;52.006;5.926;2023-10-31T02:53:29;98844.47;;;16.19;60.38
70909;BME280;58554;52.006;5.926;2023-10-31T02:55:55;98840.63;;;16.22;60.50
70909;BME280;58554;52.006;5.926;2023-10-31T02:58:24;98841.13;;;16.26;60.40
70909;BME280;58554;52.006;5.926;2023-10-31T03:00:51;98845.44;;;16.27;60.35
70909;BME280;58554;52.006;5.926;2023-10-31T03:03:17;98832.25;;;16.33;60.32
70909;BME280;58554;52.006;5.926;2023-10-31T03:05:44;98833.38;;;16.39;60.28
70909;BME280;58554;52.006;5.926;2023-10-31T03:08:10;98828.88;;;16.39;60.18
70909;BME280;58554;52.006;5.926;2023-10-31T03:10:38;98828.75;;;16.33;60.15
70909;BME280;58554;52.006;5.926;2023-10-31T03:13:05;98840.94;;;16.27;60.21
70909;BME280;58554;52.006;5.926;2023-10-31T03:15:34;98841.44;;;16.23;60.40
70909;BME280;58554;52.006;5.926;2023-10-31T03:18:00;98839.97;;;16.20;60.33
70909;BME280;58554;52.006;5.926;2023-10-31T03:20:26;98842.66;;;16.12;60.36
70909;BME280;58554;52.006;5.926;2023-10-31T03:22:53;98835.84;;;16.01;60.50
70909;BME280;58554;52.006;5.926;2023-10-31T03:25:19;98841.69;;;15.96;60.71
70909;BME280;58554;52.006;5.926;2023-10-31T03:27:46;98834.88;;;15.94;60.81
70909;BME280;58554;52.006;5.926;2023-10-31T03:30:13;98842.69;;;15.87;60.59
70909;BME280;58554;52.006;5.926;2023-10-31T03:32:42;98836.53;;;15.78;60.77
70909;BME280;58554;52.006;5.926;2023-10-31T03:35:08;98844.22;;;15.73;61.23
70909;BME280;58554;52.006;5.926;2023-10-31T03:37:35;98843.84;;;15.76;61.21
70909;BME280;58554;52.006;5.926;2023-10-31T03:40:03;98851.06;;;15.84;61.14
70909;BME280;58554;52.006;5.926;2023-10-31T03:42:32;98855.88;;;15.89;61.13
70909;BME280;58554;52.006;5.926;2023-10-31T03:44:59;98858.88;;;15.94;61.11
70909;BME280;58554;52.006;5.926;2023-10-31T03:47:25;98858.19;;;16.00;60.88
70909;BME280;58554;52.006;5.926;2023-10-31T03:49:54;98858.00;;;16.02;60.74
70909;BME280;58554;52.006;5.926;2023-10-31T03:52:21;98877.00;;;15.98;60.61
70909;BME280;58554;52.006;5.926;2023-10-31T03:54:47;98872.88;;;15.96;60.65
70909;BME280;58554;52.006;5.926;2023-10-31T03:57:14;98894.00;;;15.97;60.60
70909;BME280;58554;52.006;5.926;2023-10-31T03:59:40;98888.50;;;15.99;60.64
70909;BME280;58554;52.006;5.926;2023-10-31T04:02:06;98896.84;;;16.04;60.62
70909;BME280;58554;52.006;5.926;2023-10-31T04:04:33;98906.50;;;16.05;60.40
70909;BME280;58554;52.006;5.926;2023-10-31T04:07:02;98899.00;;;16.01;60.58
70909;BME280;58554;52.006;5.926;2023-10-31T04:09:29;98909.16;;;15.97;60.58
70909;BME280;58554;52.006;5.926;2023-10-31T04:11:55;98911.66;;;15.98;60.56
70909;BME280;58554;52.006;5.926;2023-10-31T04:14:22;98915.50;;;16.04;60.54
70909;BME280;58554;52.006;5.926;2023-10-31T04:16:48;98913.50;;;16.06;60.43
70909;BME280;58554;52.006;5.926;2023-10-31T04:19:15;98915.50;;;16.04;60.43
70909;BME280;58554;52.006;5.926;2023-10-31T04:21:41;98921.50;;;15.98;60.45
70909;BME280;58554;52.006;5.926;2023-10-31T04:24:10;98922.84;;;15.94;60.37
70909;BME280;58554;52.006;5.926;2023-10-31T04:26:37;98940.19;;;15.90;60.36
70909;BME280;58554;52.006;5.926;2023-10-31T04:29:06;98935.81;;;15.81;60.51
70909;BME280;58554;52.006;5.926;2023-10-31T04:31:32;98933.63;;;15.76;60.63
70909;BME280;58554;52.006;5.926;2023-10-31T04:33:59;98941.78;;;15.74;60.57
70909;BME280;58554;52.006;5.926;2023-10-31T04:36:25;98945.78;;;15.70;60.67
70909;BME280;58554;52.006;5.926;2023-10-31T04:38:52;98947.97;;;15.67;60.83
70909;BME280;58554;52.006;5.926;2023-10-31T04:41:21;98948.63;;;15.69;60.72
70909;BME280;58554;52.006;5.926;2023-10-31T04:43:47;98953.78;;;15.70;60.73
70909;BME280;58554;52.006;5.926;2023-10-31T04:46:14;98961.78;;;15.70;60.77
70909;BME280;58554;52.006;5.926;2023-10-31T04:48:40;98959.28;;;15.69;60.71
70909;BME280;58554;52.006;5.926;2023-10-31T04:51:06;98967.75;;;15.64;60.65
70909;BME280;58554;52.006;5.926;2023-10-31T04:53:33;98965.09;;;15.56;60.75
70909;BME280;58554;52.006;5.926;2023-10-31T04:55:59;98973.06;;;15.56;61.02
70909;BME280;58554;52.006;5.926;2023-10-31T04:58:28;98983.72;;;15.56;60.94
70909;BME280;58554;52.006;5.926;2023-10-31T05:00:55;98976.41;;;15.58;61.07
70909;BME280;58554;52.006;5.926;2023-10-31T05:03:21;98989.25;;;15.63;60.82
70909;BME280;58554;52.006;5.926;2023-10-31T05:05:48;98993.72;;;15.62;60.88
70909;BME280;58554;52.006;5.926;2023-10-31T05:08:14;98989.94;;;15.65;60.95
70909;BME280;58554;52.006;5.926;2023-10-31T05:10:41;98992.41;;;15.66;60.79
70909;BME280;58554;52.006;5.926;2023-10-31T05:13:07;98997.28;;;15.71;60.70
70909;BME280;58554;52.006;5.926;2023-10-31T05:15:36;98997.94;;;15.73;60.74
70909;BME280;58554;52.006;5.926;2023-10-31T05:18:03;99005.25;;;15.79;60.63
70909;BME280;58554;52.006;5.926;2023-10-31T05:20:29;99007.28;;;15.85;60.46
70909;BME280;58554;52.006;5.926;2023-10-31T05:22:56;99010.63;;;15.87;60.35
70909;BME280;58554;52.006;5.926;2023-10-31T05:25:22;99013.63;;;15.92;60.35
70909;BME280;58554;52.006;5.926;2023-10-31T05:27:49;99004.16;;;15.98;60.03
70909;BME280;58554;52.006;5.926;2023-10-31T05:30:15;99006.16;;;16.04;60.01
70909;BME280;58554;52.006;5.926;2023-10-31T05:32:44;99008.13;;;16.10;59.98
70909;BME280;58554;52.006;5.926;2023-10-31T05:35:11;99007.13;;;16.11;59.93
70909;BME280;58554;52.006;5.926;2023-10-31T05:37:37;99009.81;;;16.11;59.75
70909;BME280;58554;52.006;5.926;2023-10-31T05:40:05;99014.47;;;16.09;59.80
70909;BME280;58554;52.006;5.926;2023-10-31T05:42:35;99018.78;;;16.10;59.71
70909;BME280;58554;52.006;5.926;2023-10-31T05:45:03;99021.16;;;16.13;59.67
70909;BME280;58554;52.006;5.926;2023-10-31T05:47:30;99027.97;;;16.16;59.42
70909;BME280;58554;52.006;5.926;2023-10-31T05:49:59;99020.63;;;16.18;59.63
70909;BME280;58554;52.006;5.926;2023-10-31T05:52:28;99022.13;;;16.20;59.36
70909;BME280;58554;52.006;5.926;2023-10-31T05:54:55;99023.13;;;16.19;59.23
70909;BME280;58554;52.006;5.926;2023-10-31T05:57:21;99027.97;;;16.16;59.31
70909;BME280;58554;52.006;5.926;2023-10-31T05:59:48;99021.97;;;16.14;59.38
70909;BME280;58554;52.006;5.926;2023-10-31T06:02:14;99041.97;;;16.10;59.33
70909;BME280;58554;52.006;5.926;2023-10-31T06:04:42;99043.47;;;16.04;59.43
70909;BME280;58554;52.006;5.926;2023-10-31T06:07:14;99046.31;;;16.03;59.61
70909;BME280;58554;52.006;5.926;2023-10-31T06:09:41;99054.16;;;16.04;59.57
70909;BME280;58554;52.006;5.926;2023-10-31T06:12:07;99052.47;;;16.03;59.34
70909;BME280;58554;52.006;5.926;2023-10-31T06:14:34;99060.13;;;15.98;59.60
70909;BME280;58554;52.006;5.926;2023-10-31T06:17:00;99065.13;;;16.01;59.63
70909;BME280;58554;52.006;5.926;2023-10-31T06:19:26;99065.94;;;16.02;59.41
70909;BME280;58554;52.006;5.926;2023-10-31T06:21:53;99069.13;;;15.97;59.16
70909;BME280;58554;52.006;5.926;2023-10-31T06:24:22;99065.09;;;15.93;59.38
70909;BME280;58554;52.006;5.926;2023-10-31T06:26:48;99072.44;;;15.91;59.50
70909;BME280;58554;52.006;5.926;2023-10-31T06:29:15;99076.28;;;15.88;59.26
70909;BME280;58554;52.006;5.926;2023-10-31T06:31:41;99081.56;;;15.80;59.14
70909;BME280;58554;52.006;5.926;2023-10-31T06:34:08;99085.22;;;15.71;59.12
70909;BME280;58554;52.006;5.926;2023-10-31T06:36:34;99089.16;;;15.58;59.02
70909;BME280;58554;52.006;5.926;2023-10-31T06:39:01;99086.44;;;15.42;58.95
70909;BME280;58554;52.006;5.926;2023-10-31T06:41:30;99096.50;;;15.22;59.14
70909;BME280;58554;52.006;5.926;2023-10-31T06:43:56;99096.34;;;14.97;59.31
70909;BME280;58554;52.006;5.926;2023-10-31T06:46:23;99090.19;;;14.71;59.63
70909;BME280;58554;52.006;5.926;2023-10-31T06:48:49;99103.28;;;14.46;59.80
70909;BME280;58554;52.006;5.926;2023-10-31T06:51:16;99110.75;;;14.25;60.24
70909;BME280;58554;52.006;5.926;2023-10-31T06:53:42;99103.91;;;14.04;60.57
70909;BME280;58554;52.006;5.926;2023-10-31T06:56:08;99107.69;;;13.84;60.89
70909;BME280;58554;52.006;5.926;2023-10-31T06:58:37;99115.63;;;13.66;61.28
70909;BME280;58554;52.006;5.926;2023-10-31T07:01:04;99113.72;;;13.48;61.55
70909;BME280;58554;52.006;5.926;2023-10-31T07:03:31;99110.88;;;13.32;62.05
70909;BME280;58554;52.006;5.926;2023-10-31T07:05:57;99105.03;;;13.18;62.35
70909;BME280;58554;52.006;5.926;2023-10-31T07:08:24;99109.97;;;13.04;62.64
70909;BME280;58554;52.006;5.926;2023-10-31T07:10:50;99106.41;;;12.85;62.97
70909;BME280;58554;52.006;5.926;2023-10-31T07:13:17;99107.84;;;12.70;63.40
70909;BME280;58554;52.006;5.926;2023-10-31T07:15:46;99116.22;;;12.55;63.63
70909;BME280;58554;52.006;5.926;2023-10-31T07:18:12;99125.59;;;12.40;63.96
70909;BME280;58554;52.006;5.926;2023-10-31T07:20:39;99125.59;;;12.30;64.41
70909;BME280;58554;52.006;5.926;2023-10-31T07:23:05;99133.50;;;12.21;64.55
70909;BME280;58554;52.006;5.926;2023-10-31T07:25:32;99128.09;;;12.12;64.99
70909;BME280;58554;52.006;5.926;2023-10-31T07:27:58;99128.75;;;12.05;65.18
70909;BME280;58554;52.006;5.926;2023-10-31T07:30:25;99135.31;;;12.01;65.58
70909;BME280;58554;52.006;5.926;2023-10-31T07:32:54;99139.22;;;11.96;65.69
70909;BME280;58554;52.006;5.926;2023-10-31T07:35:20;99138.75;;;11.91;65.93
70909;BME280;58554;52.006;5.926;2023-10-31T07:37:46;99143.66;;;11.86;66.32
70909;BME280;58554;52.006;5.926;2023-10-31T07:40:13;99144.75;;;11.84;66.32
70909;BME280;58554;52.006;5.926;2023-10-31T07:42:40;99146.84;;;11.80;66.62
70909;BME280;58554;52.006;5.926;2023-10-31T07:45:08;99142.91;;;11.74;66.77
70909;BME280;58554;52.006;5.926;2023-10-31T07:47:36;99143.44;;;11.68;66.88
70909;BME280;58554;52.006;5.926;2023-10-31T07:50:06;99145.38;;;11.66;66.96
70909;BME280;58554;52.006;5.926;2023-10-31T07:52:33;99142.31;;;11.61;67.24
70909;BME280;58554;52.006;5.926;2023-10-31T07:55:00;99148.03;;;11.57;67.68
70909;BME280;58554;52.006;5.926;2023-10-31T07:57:26;99153.69;;;11.52;67.87
70909;BME280;58554;52.006;5.926;2023-10-31T07:59:53;99153.16;;;11.48;67.83
70909;BME280;58554;52.006;5.926;2023-10-31T08:02:19;99158.56;;;11.47;68.18
70909;BME280;58554;52.006;5.926;2023-10-31T08:04:46;99161.22;;;11.47;68.06
70909;BME280;58554;52.006;5.926;2023-10-31T08:07:15;99169.16;;;11.47;68.14
70909;BME280;58554;52.006;5.926;2023-10-31T08:09:41;99168.47;;;11.45;68.43
70909;BME280;58554;52.006;5.926;2023-10-31T08:12:08;99175.56;;;11.44;68.67
70909;BME280;58554;52.006;5.926;2023-10-31T08:14:34;99174.72;;;11.44;68.73
70909;BME280;58554;52.006;5.926;2023-10-31T08:17:00;99176.53;;;11.43;69.17
70909;BME280;58554;52.006;5.926;2023-10-31T08:19:27;99183.63;;;11.43;69.28
70909;BME280;58554;52.006;5.926;2023-10-31T08:21:53;99177.50;;;11.42;69.21
70909;BME280;58554;52.006;5.926;2023-10-31T08:24:22;99186.97;;;11.45;69.49
70909;BME280;58554;52.006;5.926;2023-10-31T08:26:49;99183.22;;;11.47;69.75
70909;BME280;58554;52.006;5.926;2023-10-31T08:29:15;99190.34;;;11.47;69.70
70909;BME280;58554;52.006;5.926;2023-10-31T08:31:42;99185.03;;;11.47;69.81
70909;BME280;58554;52.006;5.926;2023-10-31T08:34:08;99184.22;;;11.46;69.91
70909;BME280;58554;52.006;5.926;2023-10-31T08:36:35;99184.22;;;11.46;70.11
70909;BME280;58554;52.006;5.926;2023-10-31T08:39:01;99187.69;;;11.47;70.25
70909;BME280;58554;52.006;5.926;2023-10-31T08:41:31;99186.69;;;11.48;69.92
70909;BME280;58554;52.006;5.926;2023-10-31T08:43:57;99187.41;;;11.50;70.29
70909;BME280;58554;52.006;5.926;2023-10-31T08:46:24;99189.09;;;11.51;70.13
70909;BME280;58554;52.006;5.926;2023-10-31T08:48:50;99182.81;;;11.52;70.36
70909;BME280;58554;52.006;5.926;2023-10-31T08:51:17;99197.63;;;11.54;70.20
70909;BME280;58554;52.006;5.926;2023-10-31T08:53:43;99195.53;;;11.58;70.30
70909;BME280;58554;52.006;5.926;2023-10-31T08:56:10;99203.22;;;11.61;70.40
70909;BME280;58554;52.006;5.926;2023-10-31T08:58:39;99206.56;;;11.63;70.43
70909;BME280;58554;52.006;5.926;2023-10-31T09:01:05;99210.88;;;11.64;70.49
70909;BME280;58554;52.006;5.926;2023-10-31T09:03:32;99214.22;;;11.66;70.47
70909;BME280;58554;52.006;5.926;2023-10-31T09:05:58;99213.28;;;11.67;70.66
70909;BME280;58554;52.006;5.926;2023-10-31T09:08:25;99213.84;;;11.71;70.91
70909;BME280;58554;52.006;5.926;2023-10-31T09:10:51;99217.91;;;11.75;71.27
70909;BME280;58554;52.006;5.926;2023-10-31T09:13:18;99223.91;;;11.77;71.17
70909;BME280;58554;52.006;5.926;2023-10-31T09:15:47;99227.13;;;11.81;70.92
70909;BME280;58554;52.006;5.926;2023-10-31T09:18:13;99235.63;;;11.84;71.23
70909;BME280;58554;52.006;5.926;2023-10-31T09:20:40;99242.47;;;11.87;71.17
70909;BME280;58554;52.006;5.926;2023-10-31T09:23:07;99244.00;;;11.89;71.39
70909;BME280;58554;52.006;5.926;2023-10-31T09:25:33;99245.56;;;11.92;71.29
70909;BME280;58554;52.006;5.926;2023-10-31T09:28:00;99260.22;;;11.96;71.54
70909;BME280;58554;52.006;5.926;2023-10-31T09:30:27;99261.75;;;11.99;71.47
70909;BME280;58554;52.006;5.926;2023-10-31T09:32:56;99258.69;;;12.03;71.32
70909;BME280;58554;52.006;5.926;2023-10-31T09:35:22;99269.75;;;12.08;71.35
70909;BME280;58554;52.006;5.926;2023-10-31T09:37:49;99272.13;;;12.11;71.25
70909;BME280;58554;52.006;5.926;2023-10-31T09:40:16;99272.13;;;12.11;71.39
70909;BME280;58554;52.006;5.926;2023-10-31T09:42:44;99269.47;;;12.11;71.30
70909;BME280;58554;52.006;5.926;2023-10-31T09:45:12;99279.13;;;12.12;71.30
70909;BME280;58554;52.006;5.926;2023-10-31T09:47:38;99281.47;;;12.15;71.52
70909;BME280;58554;52.006;5.926;2023-10-31T09:50:09;99281.34;;;12.17;71.41
70909;BME280;58554;52.006;5.926;2023-10-31T09:52:36;99287.19;;;12.21;71.53
70909;BME280;58554;52.006;5.926;2023-10-31T09:55:05;99290.72;;;12.21;71.50
70909;BME280;58554;52.006;5.926;2023-10-31T09:57:34;99300.19;;;12.24;71.52
70909;BME280;58554;52.006;5.926;2023-10-31T10:00:01;99297.88;;;12.30;71.67
70909;BME280;58554;52.006;5.926;2023-10-31T10:02:28;99305.41;;;12.35;71.52
70909;BME280;58554;52.006;5.926;2023-10-31T10:04:55;99302.09;;;12.43;71.59
70909;BME280;58554;52.006;5.926;2023-10-31T10:07:24;99303.50;;;12.47;71.36
70909;BME280;58554;52.006;5.926;2023-10-31T10:09:50;99313.69;;;12.51;71.41
70909;BME280;58554;52.006;5.926;2023-10-31T10:12:17;99315.91;;;12.56;71.41
70909;BME280;58554;52.006;5.926;2023-10-31T10:14:45;99313.84;;;12.60;71.18
70909;BME280;58554;52.006;5.926;2023-10-31T10:17:15;99324.19;;;12.63;71.12
70909;BME280;58554;52.006;5.926;2023-10-31T10:19:46;99326.00;;;12.62;71.39
70909;BME280;58554;52.006;5.926;2023-10-31T10:22:12;99334.63;;;12.64;71.29
70909;BME280;58554;52.006;5.926;2023-10-31T10:24:44;99333.56;;;12.67;71.44
70909;BME280;58554;52.006;5.926;2023-10-31T10:27:10;99339.56;;;12.69;71.37
70909;BME280;58554;52.006;5.926;2023-10-31T10:29:38;99348.63;;;12.76;71.45
70909;BME280;58554;52.006;5.926;2023-10-31T10:32:06;99342.09;;;12.80;71.44
70909;BME280;58554;52.006;5.926;2023-10-31T10:34:33;99343.34;;;12.86;71.45
70909;BME280;58554;52.006;5.926;2023-10-31T10:37:01;99346.16;;;12.94;71.37
70909;BME280;58554;52.006;5.926;2023-10-31T10:39:33;99331.34;;;13.01;71.21
70909;BME280;58554;52.006;5.926;2023-10-31T10:42:09;99337.78;;;13.08;71.11
70909;BME280;58554;52.006;5.926;2023-10-31T10:44:36;99334.72;;;13.13;71.03
70909;BME280;58554;52.006;5.926;2023-10-31T10:47:05;99347.44;;;13.19;71.16
70909;BME280;58554;52.006;5.926;2023-10-31T10:49:34;99342.66;;;13.23;70.96
70909;BME280;58554;52.006;5.926;2023-10-31T10:52:16;99347.84;;;13.24;70.85
70909;BME280;58554;52.006;5.926;2023-10-31T10:54:52;99346.00;;;13.25;70.82
70909;BME280;58554;52.006;5.926;2023-10-31T10:57:31;99343.09;;;13.28;70.85
70909;BME280;58554;52.006;5.926;2023-10-31T11:00:04;99347.28;;;13.30;70.88
70909;BME280;58554;52.006;5.926;2023-10-31T11:02:32;99349.50;;;13.35;71.03
70909;BME280;58554;52.006;5.926;2023-10-31T11:05:00;99346.72;;;13.36;70.67
70909;BME280;58554;52.006;5.926;2023-10-31T11:07:29;99353.56;;;13.39;70.53
70909;BME280;58554;52.006;5.926;2023-10-31T11:09:59;99352.28;;;13.43;70.44
70909;BME280;58554;52.006;5.926;2023-10-31T11:12:30;99355.50;;;13.47;70.57
70909;BME280;58554;52.006;5.926;2023-10-31T11:14:57;99356.06;;;13.50;70.42
70909;BME280;58554;52.006;5.926;2023-10-31T11:17:27;99358.44;;;13.53;70.34
70909;BME280;58554;52.006;5.926;2023-10-31T11:19:57;99358.31;;;13.55;70.36
70909;BME280;58554;52.006;5.926;2023-10-31T11:22:25;99355.66;;;13.55;70.03
70909;BME280;58554;52.006;5.926;2023-10-31T11:24:52;99350.34;;;13.55;70.18
70909;BME280;58554;52.006;5.926;2023-10-31T11:27:18;99356.59;;;13.54;70.10
70909;BME280;58554;52.006;5.926;2023-10-31T11:29:47;99365.00;;;13.49;70.07
70909;BME280;58554;52.006;5.926;2023-10-31T11:32:14;99369.91;;;13.44;70.05
70909;BME280;58554;52.006;5.926;2023-10-31T11:34:42;99364.16;;;13.39;70.12
70909;BME280;58554;52.006;5.926;2023-10-31T11:37:26;99371.59;;;13.35;70.36
70909;BME280;58554;52.006;5.926;2023-10-31T11:40:16;99383.19;;;13.34;70.62
70909;BME280;58554;52.006;5.926;2023-10-31T11:42:47;99386.53;;;13.27;70.47
70909;BME280;58554;52.006;5.926;2023-10-31T11:45:27;99383.34;;;13.23;70.72
70909;BME280;58554;52.006;5.926;2023-10-31T11:47:56;99383.47;;;13.22;70.84
70909;BME280;58554;52.006;5.926;2023-10-31T11:50:23;99387.94;;;13.21;70.99
70909;BME280;58554;52.006;5.926;2023-10-31T11:53:06;99381.38;;;13.25;71.53
70909;BME280;58554;52.006;5.926;2023-10-31T11:55:35;99400.38;;;13.30;71.15
70909;BME280;58554;52.006;5.926;2023-10-31T11:58:16;99386.28;;;13.40;70.92
70909;BME280;58554;52.006;5.926;2023-10-31T12:00:48;99404.56;;;13.43;70.75
70909;BME280;58554;52.006;5.926;2023-10-31T12:03:18;99402.47;;;13.46;70.47
70909;BME280;58554;52.006;5.926;2023-10-31T12:05:53;99412.09;;;13.47;70.45
70909;BME280;58554;52.006;5.926;2023-10-31T12:08:27;99410.44;;;13.46;70.37
70909;BME280;58554;52.006;5.926;2023-10-31T12:11:04;99406.94;;;13.46;70.42
70909;BME280;58554;52.006;5.926;2023-10-31T12:13:33;99403.19;;;13.48;70.44
70909;BME280;58554;52.006;5.926;2023-10-31T12:16:04;99404.28;;;13.46;70.39
70909;BME280;58554;52.006;5.926;2023-10-31T12:18:33;99403.44;;;13.45;70.29
70909;BME280;58554;52.006;5.926;2023-10-31T12:21:00;99402.47;;;13.46;70.41
70909;BME280;58554;52.006;5.926;2023-10-31T12:23:27;99398.56;;;13.50;70.29
70909;BME280;58554;52.006;5.926;2023-10-31T12:25:54;99402.63;;;13.54;70.33
70909;BME280;58554;52.006;5.926;2023-10-31T12:28:22;99403.34;;;13.56;70.00
70909;BME280;58554;52.006;5.926;2023-10-31T12:30:52;99400.53;;;13.58;69.97
70909;BME280;58554;52.006;5.926;2023-10-31T12:33:25;99398.72;;;13.59;69.94
70909;BME280;58554;52.006;5.926;2023-10-31T12:35:57;99406.97;;;13.55;69.71
70909;BME280;58554;52.006;5.926;2023-10-31T12:38:25;99415.34;;;13.51;69.81
70909;BME280;58554;52.006;5.926;2023-10-31T12:40:53;99410.44;;;13.46;69.77
70909;BME280;58554;52.006;5.926;2023-10-31T12:43:23;99415.19;;;13.43;69.85
70909;BME280;58554;52.006;5.926;2023-10-31T12:45:51;99421.75;;;13.38;69.89
70909;BME280;58554;52.006;5.926;2023-10-31T12:48:26;99418.53;;;13.35;69.75
70909;BME280;58554;52.006;5.926;2023-10-31T12:51:06;99427.63;;;13.32;69.88
70909;BME280;58554;52.006;5.926;2023-10-31T12:53:33;99431.41;;;13.30;69.44
70909;BME280;58554;52.006;5.926;2023-10-31T12:55:59;99428.31;;;13.25;69.75
70909;BME280;58554;52.006;5.926;2023-10-31T12:58:26;99433.19;;;13.20;69.87
70909;BME280;58554;52.006;5.926;2023-10-31T13:00:52;99435.28;;;13.16;70.01
70909;BME280;58554;52.006;5.926;2023-10-31T13:03:19;99429.84;;;13.17;70.06